createdAt,value
2023-11-15T00:01:45.201Z,9.75
2023-11-15T00:04:14.210Z,9.83
2023-11-15T00:06:44.514Z,9.82
2023-11-15T00:09:14.188Z,9.79
2023-11-15T00:11:42.652Z,9.82
2023-11-15T00:14:11.173Z,9.74
2023-11-15T00:16:39.952Z,9.66
2023-11-15T00:19:09.066Z,9.75
2023-11-15T00:21:38.590Z,9.72
2023-11-15T00:24:10.020Z,9.72
2023-11-15T00:26:39.075Z,9.73
2023-11-15T00:29:08.771Z,9.76
2023-11-15T00:31:37.486Z,9.70
2023-11-15T00:34:06.541Z,9.71
2023-11-15T00:36:35.141Z,9.66
2023-11-15T00:39:10.005Z,9.69
2023-11-15T00:41:41.026Z,9.75
2023-11-15T00:44:09.489Z,9.73
2023-11-15T00:46:37.899Z,9.75
2023-11-15T00:49:06.817Z,9.73
2023-11-15T00:51:35.425Z,9.79
2023-11-15T00:54:04.882Z,9.69
2023-11-15T00:56:33.762Z,9.80
2023-11-15T00:59:04.395Z,9.83
2023-11-15T01:01:33.384Z,9.79
2023-11-15T01:04:01.975Z,9.77
2023-11-15T01:06:31.069Z,9.76
2023-11-15T01:09:00.401Z,9.81
2023-11-15T01:11:28.904Z,9.78
2023-11-15T01:13:57.977Z,9.78
2023-11-15T01:16:28.608Z,9.81
2023-11-15T01:18:57.438Z,9.78
2023-11-15T01:21:26.467Z,9.75
2023-11-15T01:23:54.991Z,9.74
2023-11-15T01:26:23.490Z,9.72
2023-11-15T01:28:52.823Z,9.72
2023-11-15T01:31:21.415Z,9.70
2023-11-15T01:33:51.544Z,9.67
2023-11-15T01:36:19.763Z,9.60
2023-11-15T01:38:48.605Z,9.57
2023-11-15T01:41:19.016Z,9.64
2023-11-15T01:43:47.841Z,9.61
2023-11-15T01:46:17.283Z,9.56
2023-11-15T01:48:46.221Z,9.52
2023-11-15T01:51:16.572Z,9.60
2023-11-15T01:53:45.637Z,9.61
2023-11-15T01:56:14.293Z,9.62
2023-11-15T01:58:43.596Z,9.62
2023-11-15T02:01:12.600Z,9.65
2023-11-15T02:03:41.300Z,9.62
2023-11-15T02:06:09.925Z,9.65
2023-11-15T02:08:40.640Z,9.63
2023-11-15T02:11:09.427Z,9.59
2023-11-15T02:13:38.416Z,9.60
2023-11-15T02:16:08.472Z,9.59
2023-11-15T02:18:37.658Z,9.60
2023-11-15T02:21:07.030Z,9.61
2023-11-15T02:23:43.804Z,9.66
2023-11-15T02:26:12.795Z,9.57
2023-11-15T02:28:41.466Z,9.54
2023-11-15T02:31:13.360Z,9.46
2023-11-15T02:33:41.873Z,9.43
2023-11-15T02:36:11.325Z,9.40
2023-11-15T02:38:41.922Z,9.31
2023-11-15T02:41:12.172Z,9.30
2023-11-15T02:43:40.747Z,9.21
2023-11-15T02:46:09.309Z,9.24
2023-11-15T02:48:38.334Z,9.21
2023-11-15T02:51:07.828Z,9.21
2023-11-15T02:53:36.831Z,9.24
2023-11-15T02:56:08.359Z,9.29
2023-11-15T02:58:37.138Z,9.25
2023-11-15T03:01:08.266Z,9.28
2023-11-15T03:03:37.981Z,9.25
2023-11-15T03:06:07.705Z,9.24
2023-11-15T03:08:38.212Z,9.17
2023-11-15T03:11:10.039Z,9.20
2023-11-15T03:13:38.866Z,9.25
2023-11-15T03:16:08.650Z,9.26
2023-11-15T03:18:37.682Z,9.23
2023-11-15T03:21:07.601Z,9.19
2023-11-15T03:23:36.606Z,9.21
2023-11-15T03:26:05.533Z,9.23
2023-11-15T03:28:36.153Z,9.17
2023-11-15T03:31:07.557Z,9.24
2023-11-15T03:33:35.999Z,9.23
2023-11-15T03:36:03.557Z,9.26
2023-11-15T03:38:32.262Z,9.24
2023-11-15T03:41:01.827Z,9.25
2023-11-15T03:43:30.674Z,9.21
2023-11-15T03:46:00.835Z,9.22
2023-11-15T03:48:29.838Z,9.20
2023-11-15T03:50:58.195Z,9.18
2023-11-15T03:53:26.993Z,9.19
2023-11-15T03:55:55.984Z,9.19
2023-11-15T03:58:24.478Z,9.23
2023-11-15T04:00:53.601Z,9.27
2023-11-15T04:03:27.562Z,9.15
2023-11-15T04:05:56.754Z,9.12
2023-11-15T04:08:25.049Z,9.05
2023-11-15T04:10:53.674Z,9.03
2023-11-15T04:13:22.898Z,9.10
2023-11-15T04:15:51.392Z,9.07
2023-11-15T04:18:20.118Z,9.05
2023-11-15T04:20:50.134Z,9.05
2023-11-15T04:23:18.628Z,9.06
2023-11-15T04:25:48.607Z,9.10
2023-11-15T04:28:17.368Z,9.11
2023-11-15T04:30:47.881Z,9.14
2023-11-15T04:33:16.746Z,9.13
2023-11-15T04:35:45.670Z,9.15
2023-11-15T04:38:15.499Z,9.18
2023-11-15T04:40:44.080Z,9.18
2023-11-15T04:43:14.826Z,9.12
2023-11-15T04:45:43.535Z,9.07
2023-11-15T04:48:12.546Z,9.01
2023-11-15T04:50:41.292Z,9.00
2023-11-15T04:53:10.283Z,8.91
2023-11-15T04:55:40.357Z,8.87
2023-11-15T04:58:09.157Z,8.87
2023-11-15T05:00:38.569Z,8.86
2023-11-15T05:03:07.096Z,8.87
2023-11-15T05:05:35.602Z,8.90
2023-11-15T05:08:05.251Z,8.91
2023-11-15T05:10:34.424Z,8.93
2023-11-15T05:13:05.564Z,8.88
2023-11-15T05:15:34.577Z,8.91
2023-11-15T05:18:04.095Z,8.97
2023-11-15T05:20:32.679Z,8.95
2023-11-15T05:23:01.430Z,8.96
2023-11-15T05:25:30.415Z,8.96
2023-11-15T05:27:58.850Z,8.95
2023-11-15T05:30:30.291Z,8.95
2023-11-15T05:32:58.730Z,8.92
2023-11-15T05:35:27.373Z,8.89
2023-11-15T05:37:56.916Z,8.88
2023-11-15T05:40:25.541Z,8.82
2023-11-15T05:42:54.244Z,8.84
2023-11-15T05:45:29.546Z,8.85
2023-11-15T05:48:00.161Z,8.81
2023-11-15T05:50:29.209Z,8.82
2023-11-15T05:52:57.429Z,8.84
2023-11-15T05:55:26.062Z,8.81
2023-11-15T05:57:55.196Z,8.85
2023-11-15T06:00:24.673Z,8.82
2023-11-15T06:02:54.361Z,8.78
2023-11-15T06:05:24.089Z,8.79
2023-11-15T06:07:52.870Z,8.79
2023-11-15T06:10:21.160Z,8.71
2023-11-15T06:12:50.310Z,8.72
2023-11-15T06:15:20.357Z,8.66
2023-11-15T06:17:50.032Z,8.71
2023-11-15T06:20:18.688Z,8.67
2023-11-15T06:22:48.736Z,8.63
2023-11-15T06:25:20.265Z,8.54
2023-11-15T06:27:48.692Z,8.53
2023-11-15T06:30:18.871Z,8.58
2023-11-15T06:32:47.903Z,8.54
2023-11-15T06:35:20.224Z,8.54
2023-11-15T06:37:51.007Z,8.49
2023-11-15T06:40:19.874Z,8.54
2023-11-15T06:42:49.323Z,8.57
2023-11-15T06:45:18.201Z,8.54
2023-11-15T06:47:47.301Z,8.54
2023-11-15T06:50:17.624Z,8.61
2023-11-15T06:52:47.290Z,8.68
2023-11-15T06:55:20.125Z,8.66
2023-11-15T06:57:50.027Z,8.70
2023-11-15T07:00:19.662Z,8.71
2023-11-15T07:02:48.467Z,8.70
2023-11-15T07:05:17.884Z,8.66
2023-11-15T07:07:49.095Z,8.70
2023-11-15T07:10:19.931Z,8.68
2023-11-15T07:12:48.845Z,8.50
2023-11-15T07:15:19.402Z,8.35
2023-11-15T07:17:47.770Z,8.32
2023-11-15T07:20:22.016Z,8.27
2023-11-15T07:22:50.714Z,8.26
2023-11-15T07:25:24.061Z,8.26
2023-11-15T07:27:57.595Z,8.30
2023-11-15T07:30:28.566Z,8.26
2023-11-15T07:32:57.127Z,8.24
2023-11-15T07:35:27.295Z,8.18
2023-11-15T07:37:56.312Z,8.18
2023-11-15T07:40:25.817Z,8.22
2023-11-15T07:42:54.038Z,8.24
2023-11-15T07:45:22.202Z,8.25
2023-11-15T07:47:50.583Z,8.24
2023-11-15T07:50:18.994Z,8.26
2023-11-15T07:52:47.914Z,8.27
2023-11-15T07:55:16.614Z,8.26
2023-11-15T07:57:46.240Z,8.30
2023-11-15T08:00:15.939Z,8.32
2023-11-15T08:02:46.262Z,8.36
2023-11-15T08:05:14.802Z,8.34
2023-11-15T08:07:43.245Z,8.35
2023-11-15T08:10:14.797Z,8.44
2023-11-15T08:12:47.245Z,8.43
2023-11-15T08:15:16.229Z,8.40
2023-11-15T08:17:45.088Z,8.44
2023-11-15T08:20:14.109Z,8.46
2023-11-15T08:22:42.485Z,8.40
2023-11-15T08:25:11.795Z,8.32
2023-11-15T08:27:41.861Z,8.26
2023-11-15T08:30:18.647Z,8.23
2023-11-15T08:32:47.329Z,8.26
2023-11-15T08:35:17.032Z,8.24
2023-11-15T08:37:45.505Z,8.28
2023-11-15T08:40:26.143Z,8.23
2023-11-15T08:42:58.445Z,8.30
2023-11-15T08:45:28.799Z,8.24
2023-11-15T08:47:59.376Z,8.29
2023-11-15T08:50:30.838Z,8.29
2023-11-15T08:53:00.306Z,8.31
2023-11-15T08:55:29.881Z,8.30
2023-11-15T08:57:58.795Z,8.36
2023-11-15T09:00:30.446Z,8.40
2023-11-15T09:02:59.007Z,8.30
2023-11-15T09:05:27.790Z,8.25
2023-11-15T09:07:56.521Z,8.27
2023-11-15T09:10:28.309Z,8.28
2023-11-15T09:12:58.331Z,8.33
2023-11-15T09:15:32.065Z,8.35
2023-11-15T09:18:01.744Z,8.41
2023-11-15T09:20:30.409Z,8.41
2023-11-15T09:22:59.475Z,8.34
2023-11-15T09:25:31.494Z,8.33
2023-11-15T09:28:04.048Z,8.33
2023-11-15T09:30:34.469Z,8.36
2023-11-15T09:33:07.564Z,8.37
2023-11-15T09:35:40.108Z,8.45
2023-11-15T09:38:12.413Z,8.55
2023-11-15T09:40:40.851Z,8.65
2023-11-15T09:43:12.033Z,8.68
2023-11-15T09:45:44.046Z,8.76
2023-11-15T09:48:14.278Z,8.79
2023-11-15T09:50:45.392Z,8.74
2023-11-15T09:53:14.479Z,8.79
2023-11-15T09:55:43.399Z,8.86
2023-11-15T09:58:13.486Z,8.94
2023-11-15T10:00:43.733Z,8.98
2023-11-15T10:03:12.463Z,8.90
2023-11-15T10:05:44.139Z,8.87
2023-11-15T10:08:15.002Z,8.77
2023-11-15T10:10:44.869Z,8.77
2023-11-15T10:13:15.450Z,8.75
2023-11-15T10:15:48.076Z,8.71
2023-11-15T10:38:00.248Z,8.61
2023-11-15T10:40:31.315Z,8.66
2023-11-15T10:43:03.216Z,8.75
2023-11-15T10:45:32.558Z,8.83
2023-11-15T10:48:06.003Z,8.82
2023-11-15T10:50:35.421Z,8.84
2023-11-15T10:53:06.575Z,8.88
2023-11-15T10:55:35.103Z,8.75
2023-11-15T11:13:23.369Z,8.86
2023-11-15T11:15:53.121Z,8.93
2023-11-15T11:18:23.535Z,9.01
2023-11-15T11:21:01.467Z,9.18
2023-11-15T11:23:34.575Z,9.29
2023-11-15T11:26:43.647Z,9.29
2023-11-15T11:29:14.245Z,8.95
2023-11-15T11:31:42.517Z,9.08
2023-11-15T11:34:12.099Z,9.21
2023-11-15T11:36:51.002Z,9.26
2023-11-15T11:39:24.002Z,9.12
2023-11-15T11:41:52.963Z,9.06
2023-11-15T11:44:22.728Z,9.11
2023-11-15T11:47:04.089Z,9.13
2023-11-15T11:49:46.867Z,9.16
2023-11-15T11:52:18.287Z,9.29
2023-11-15T11:54:47.969Z,9.39
2023-11-15T11:57:21.902Z,9.42
2023-11-15T12:00:14.912Z,9.47
2023-11-15T12:02:47.376Z,9.57
2023-11-15T12:05:22.910Z,9.50
2023-11-15T12:07:52.474Z,9.47
2023-11-15T12:10:21.107Z,9.40
2023-11-15T12:12:56.712Z,9.44
2023-11-15T12:15:28.826Z,9.44
2023-11-15T12:17:58.468Z,9.54
2023-11-15T12:20:30.863Z,9.58
2023-11-15T12:23:07.723Z,9.61
2023-11-15T12:25:44.560Z,9.61
2023-11-15T12:28:13.821Z,9.70
2023-11-15T12:30:44.824Z,9.71
2023-11-15T12:33:13.898Z,9.74
2023-11-15T12:35:43.353Z,9.76
2023-11-15T12:38:15.491Z,9.73
2023-11-15T12:40:45.963Z,9.72
2023-11-15T12:43:22.960Z,9.79
2023-11-15T12:45:53.436Z,9.78
2023-11-15T12:48:22.110Z,9.76
2023-11-15T12:50:50.895Z,9.81
2023-11-15T12:53:20.184Z,9.80
2023-11-15T12:55:51.982Z,9.73
2023-11-15T12:58:21.999Z,9.70
2023-11-15T13:01:01.294Z,9.74
2023-11-15T13:03:32.237Z,9.77
2023-11-15T13:06:12.486Z,9.75
2023-11-15T13:08:42.416Z,9.81
2023-11-15T13:11:11.305Z,9.66
2023-11-15T13:13:40.450Z,9.75
2023-11-15T13:16:10.753Z,9.74
2023-11-15T13:18:40.539Z,9.82
2023-11-15T13:21:12.869Z,9.87
2023-11-15T13:23:41.664Z,9.89
2023-11-15T13:26:11.933Z,9.86
2023-11-15T13:28:41.066Z,9.86
2023-11-15T13:31:12.608Z,9.86
2023-11-15T13:33:46.546Z,9.83
2023-11-15T13:36:17.521Z,9.87
2023-11-15T13:38:46.898Z,9.90
2023-11-15T13:41:18.705Z,9.89
2023-11-15T13:43:48.924Z,9.80
2023-11-15T13:46:20.161Z,9.77
2023-11-15T13:48:48.446Z,9.78
2023-11-15T13:51:19.533Z,9.65
2023-11-15T13:53:48.019Z,9.72
2023-11-15T13:56:16.708Z,9.70
2023-11-15T13:58:45.293Z,9.70
2023-11-15T14:01:13.579Z,9.69
2023-11-15T14:03:45.082Z,9.70
2023-11-15T14:06:14.145Z,9.67
2023-11-15T14:08:52.060Z,9.66
2023-11-15T14:11:29.117Z,9.61
2023-11-15T14:13:58.796Z,9.55
2023-11-15T14:16:27.780Z,9.54
2023-11-15T14:18:58.000Z,9.50
2023-11-15T14:21:27.740Z,9.55
2023-11-15T14:23:57.719Z,9.49
2023-11-15T14:26:27.116Z,9.35
2023-11-15T14:28:56.325Z,9.33
2023-11-15T14:31:25.056Z,9.39
2023-11-15T14:33:54.002Z,9.40
2023-11-15T14:36:27.457Z,9.43
2023-11-15T14:38:56.121Z,9.39
2023-11-15T14:41:24.646Z,9.38
2023-11-15T14:43:53.086Z,9.40
2023-11-15T14:46:26.749Z,9.35
2023-11-15T14:48:58.494Z,9.31
2023-11-15T14:51:29.555Z,9.32
2023-11-15T14:54:00.122Z,9.31
2023-11-15T14:56:29.488Z,9.26
2023-11-15T14:59:00.538Z,9.28
2023-11-15T15:01:29.757Z,9.28
2023-11-15T15:04:19.805Z,9.29
2023-11-15T15:06:49.621Z,9.26
2023-11-15T15:09:19.433Z,9.28
2023-11-15T15:11:48.312Z,9.26
2023-11-15T15:14:18.534Z,9.27
2023-11-15T15:16:48.170Z,9.23
2023-11-15T15:19:16.549Z,9.25
2023-11-15T15:21:46.137Z,9.28
2023-11-15T15:24:15.806Z,9.30
2023-11-15T15:26:44.067Z,9.27
2023-11-15T15:29:22.199Z,9.29
2023-11-15T15:31:55.330Z,9.26
2023-11-15T15:34:24.992Z,9.24
2023-11-15T15:36:53.262Z,9.24
2023-11-15T15:39:23.744Z,9.27
2023-11-15T15:41:53.719Z,9.25
2023-11-15T15:44:27.846Z,9.25
2023-11-15T15:46:56.653Z,9.26
2023-11-15T15:49:25.187Z,9.26
2023-11-15T15:51:57.731Z,9.27
2023-11-15T15:54:28.377Z,9.22
2023-11-15T15:56:58.422Z,9.19
2023-11-15T15:59:33.787Z,9.14
2023-11-15T16:02:03.337Z,9.04
2023-11-15T16:04:34.704Z,9.10
2023-11-15T16:07:03.293Z,9.16
2023-11-15T16:09:38.173Z,9.13
2023-11-15T16:12:08.216Z,8.95
2023-11-15T16:14:37.175Z,8.92
2023-11-15T16:17:06.667Z,9.05
2023-11-15T16:19:39.328Z,9.06
2023-11-15T16:22:09.604Z,9.11
2023-11-15T16:24:41.335Z,8.99
2023-11-15T16:27:10.835Z,9.03
2023-11-15T16:29:43.668Z,9.07
2023-11-15T16:32:13.432Z,9.11
2023-11-15T16:34:42.191Z,9.18
2023-11-15T16:37:10.580Z,9.23
2023-11-15T16:39:40.615Z,9.25
2023-11-15T16:42:09.523Z,9.13
2023-11-15T16:44:38.105Z,9.19
2023-11-15T16:47:07.263Z,9.17
2023-11-15T16:49:35.844Z,9.11
2023-11-15T16:52:04.386Z,9.14
2023-11-15T16:54:36.426Z,9.08
2023-11-15T16:57:08.251Z,9.06
2023-11-15T16:59:37.156Z,9.08
2023-11-15T17:02:07.791Z,9.13
2023-11-15T17:04:36.943Z,8.99
2023-11-15T17:07:08.015Z,9.01
2023-11-15T17:09:44.298Z,8.93
2023-11-15T17:12:14.817Z,9.01
2023-11-15T17:17:43.646Z,9.01
2023-11-15T17:20:15.065Z,9.07
2023-11-15T17:22:44.286Z,9.07
2023-11-15T17:25:19.785Z,9.02
2023-11-15T17:27:53.307Z,9.06
2023-11-15T17:30:23.748Z,8.85
2023-11-15T17:32:52.183Z,8.74
2023-11-15T17:35:20.845Z,8.73
2023-11-15T17:37:52.229Z,8.70
2023-11-15T17:40:21.512Z,8.64
2023-11-15T17:42:52.643Z,8.63
2023-11-15T17:45:21.042Z,8.70
2023-11-15T17:47:49.360Z,8.77
2023-11-15T17:50:19.463Z,8.58
2023-11-15T17:52:50.187Z,8.53
2023-11-15T17:55:18.640Z,8.32
2023-11-15T17:57:47.835Z,8.40
2023-11-15T18:00:18.546Z,8.34
2023-11-15T18:02:47.241Z,8.51
2023-11-15T18:05:16.013Z,8.53
2023-11-15T18:07:44.693Z,8.59
2023-11-15T18:10:15.332Z,8.60
2023-11-15T18:12:45.093Z,8.50
2023-11-15T18:15:15.773Z,8.40
2023-11-15T18:17:45.550Z,8.29
2023-11-15T18:20:14.580Z,8.14
2023-11-15T18:22:43.105Z,8.18
2023-11-15T18:25:13.236Z,8.33
2023-11-15T18:27:45.142Z,8.45
2023-11-15T18:30:15.193Z,8.51
2023-11-15T18:32:50.837Z,8.42
2023-11-15T18:35:20.023Z,8.48
2023-11-15T18:37:49.298Z,8.54
2023-11-15T18:40:22.588Z,8.57
2023-11-15T18:42:52.683Z,8.61
2023-11-15T18:45:21.502Z,8.58
2023-11-15T18:47:52.268Z,8.56
2023-11-15T18:50:21.760Z,8.55
2023-11-15T18:52:50.538Z,8.53
2023-11-15T18:55:31.663Z,8.61
2023-11-15T18:57:59.845Z,8.62
2023-11-15T19:00:28.170Z,8.60
2023-11-15T19:03:02.295Z,8.58
2023-11-15T19:05:33.158Z,8.57
2023-11-15T19:08:01.905Z,8.22
2023-11-15T19:10:33.895Z,8.05
2023-11-15T19:13:02.249Z,8.21
2023-11-15T19:15:31.104Z,8.27
2023-11-15T19:18:01.720Z,8.27
2023-11-15T19:20:31.614Z,8.31
2023-11-15T19:22:59.946Z,8.30
2023-11-15T19:25:28.179Z,8.06
2023-11-15T19:27:58.949Z,8.22
2023-11-15T19:30:27.341Z,8.09
2023-11-15T19:32:55.803Z,7.94
2023-11-15T19:35:27.271Z,8.08
2023-11-15T19:37:56.011Z,8.22
2023-11-15T19:40:24.466Z,8.17
2023-11-15T19:42:52.886Z,8.01
2023-11-15T19:45:22.554Z,8.07
2023-11-15T19:47:51.122Z,8.14
2023-11-15T19:50:19.646Z,8.09
2023-11-15T19:52:49.604Z,8.16
2023-11-15T19:55:19.902Z,8.16
2023-11-15T19:57:48.279Z,8.24
2023-11-15T20:00:17.945Z,8.22
2023-11-15T20:02:48.310Z,8.25
2023-11-15T20:05:18.309Z,8.26
2023-11-15T20:07:46.780Z,8.18
2023-11-15T20:10:16.355Z,7.96
2023-11-15T20:12:45.097Z,8.04
2023-11-15T20:15:14.425Z,7.98
2023-11-15T20:17:43.445Z,7.97
2023-11-15T20:20:15.505Z,8.06
2023-11-15T20:22:50.701Z,8.15
2023-11-15T20:25:22.894Z,7.82
2023-11-15T20:27:51.232Z,7.69
2023-11-15T20:30:22.751Z,7.69
2023-11-15T20:32:55.473Z,7.74
2023-11-15T20:35:25.145Z,7.72
2023-11-15T20:37:53.518Z,7.76
2023-11-15T20:40:23.470Z,7.68
2023-11-15T20:42:51.919Z,7.67
2023-11-15T20:45:20.249Z,7.70
2023-11-15T20:47:48.736Z,7.67
2023-11-15T20:50:17.125Z,7.59
2023-11-15T20:52:45.682Z,7.65
2023-11-15T20:55:15.260Z,7.51
2023-11-15T20:57:45.040Z,7.45
2023-11-15T21:00:14.491Z,7.41
2023-11-15T21:02:43.009Z,7.34
2023-11-15T21:05:12.986Z,7.51
2023-11-15T21:07:42.072Z,7.54
2023-11-15T21:10:11.057Z,7.46
2023-11-15T21:12:40.282Z,7.63
2023-11-15T21:15:11.995Z,7.57
2023-11-15T21:17:40.422Z,7.49
2023-11-15T21:20:13.458Z,7.50
2023-11-15T21:22:43.173Z,7.43
2023-11-15T21:25:13.927Z,7.53
2023-11-15T21:27:42.982Z,7.39
2023-11-15T21:30:14.324Z,7.46
2023-11-15T21:32:43.516Z,7.37
2023-11-15T21:35:13.176Z,7.41
2023-11-15T21:37:43.115Z,7.50
2023-11-15T21:40:16.074Z,7.40
2023-11-15T21:42:46.572Z,7.42
2023-11-15T21:45:17.842Z,7.58
2023-11-15T21:47:47.114Z,7.68
2023-11-15T21:50:16.961Z,7.71
2023-11-15T21:52:45.645Z,7.73
2023-11-15T21:55:14.037Z,7.54
2023-11-15T21:57:42.386Z,7.58
2023-11-15T22:00:14.789Z,7.47
2023-11-15T22:02:44.663Z,7.45
2023-11-15T22:05:13.001Z,7.52
2023-11-15T22:07:41.918Z,7.60
2023-11-15T22:10:11.498Z,7.50
2023-11-15T22:12:39.744Z,7.50
2023-11-15T22:15:10.528Z,7.39
2023-11-15T22:17:40.895Z,7.35
2023-11-15T22:20:12.498Z,7.47
2023-11-15T22:22:40.858Z,7.55
2023-11-15T22:25:09.237Z,7.45
2023-11-15T22:27:37.920Z,7.54
2023-11-15T22:30:08.197Z,7.47
2023-11-15T22:32:37.039Z,7.23
2023-11-15T22:35:05.756Z,7.30
2023-11-15T22:37:35.544Z,7.20
2023-11-15T22:40:03.810Z,7.22
2023-11-15T22:42:32.065Z,7.28
2023-11-15T22:44:59.396Z,7.49
2023-11-15T22:47:27.889Z,7.44
2023-11-15T22:49:56.137Z,7.22
2023-11-15T22:52:24.338Z,7.33
2023-11-15T22:54:53.989Z,7.29
2023-11-15T22:57:22.273Z,7.29
2023-11-15T22:59:52.573Z,7.40
2023-11-15T23:02:22.029Z,7.44
2023-11-15T23:04:50.831Z,7.41
2023-11-15T23:07:22.051Z,7.38
2023-11-15T23:09:51.579Z,7.29
2023-11-15T23:12:24.498Z,7.43
2023-11-15T23:14:52.807Z,7.51
2023-11-15T23:17:22.770Z,7.55
2023-11-15T23:19:51.938Z,7.55
2023-11-15T23:22:20.393Z,7.49
2023-11-15T23:24:48.702Z,7.51
2023-11-15T23:27:17.683Z,7.51
2023-11-15T23:29:48.863Z,7.59
2023-11-15T23:32:17.902Z,7.54
2023-11-15T23:34:46.528Z,7.57
2023-11-15T23:37:15.017Z,7.51
2023-11-15T23:39:43.357Z,7.59
2023-11-15T23:42:13.054Z,7.63
2023-11-15T23:44:42.754Z,7.66
2023-11-15T23:47:13.277Z,7.83
2023-11-15T23:49:41.752Z,7.81
2023-11-15T23:52:11.057Z,7.84
2023-11-15T23:54:39.510Z,7.94
2023-11-15T23:57:09.630Z,8.01
2023-11-15T23:59:38.095Z,8.01
